sensor_id;sensor_type;location;lat;lon;timestamp;P1;durP1;ratioP1;P2;durP2;ratioP2
6133;SDS011;3098;42.678;23.364;2023-08-20T00:01:29;9.68;;;5.68;;
6133;SDS011;3098;42.678;23.364;2023-08-20T00:03:59;9.85;;;5.05;;
6133;SDS011;3098;42.678;23.364;2023-08-20T00:06:26;8.30;;;5.53;;
6133;SDS011;3098;42.678;23.364;2023-08-20T00:08:54;11.65;;;6.25;;
6133;SDS011;3098;42.678;23.364;2023-08-20T00:11:21;9.98;;;5.20;;
6133;SDS011;3098;42.678;23.364;2023-08-20T00:13:48;8.18;;;5.45;;
6133;SDS011;3098;42.678;23.364;2023-08-20T00:16:16;6.80;;;5.18;;
6133;SDS011;3098;42.678;23.364;2023-08-20T00:18:43;7.53;;;5.47;;
6133;SDS011;3098;42.678;23.364;2023-08-20T00:21:13;10.02;;;5.07;;
6133;SDS011;3098;42.678;23.364;2023-08-20T00:23:40;9.18;;;5.20;;
6133;SDS011;3098;42.678;23.364;2023-08-20T00:26:08;9.68;;;5.35;;
6133;SDS011;3098;42.678;23.364;2023-08-20T00:28:37;7.20;;;5.00;;
6133;SDS011;3098;42.678;23.364;2023-08-20T00:31:04;6.78;;;4.80;;
6133;SDS011;3098;42.678;23.364;2023-08-20T00:33:31;6.97;;;5.53;;
6133;SDS011;3098;42.678;23.364;2023-08-20T00:35:58;8.82;;;5.60;;
6133;SDS011;3098;42.678;23.364;2023-08-20T00:38:27;11.15;;;5.43;;
6133;SDS011;3098;42.678;23.364;2023-08-20T00:40:53;8.73;;;5.38;;
6133;SDS011;3098;42.678;23.364;2023-08-20T00:43:20;10.60;;;5.95;;
6133;SDS011;3098;42.678;23.364;2023-08-20T00:45:48;8.35;;;5.50;;
6133;SDS011;3098;42.678;23.364;2023-08-20T00:48:15;8.68;;;5.57;;
6133;SDS011;3098;42.678;23.364;2023-08-20T00:50:43;9.38;;;6.20;;
6133;SDS011;3098;42.678;23.364;2023-08-20T00:53:11;8.45;;;5.72;;
6133;SDS011;3098;42.678;23.364;2023-08-20T00:55:41;10.25;;;5.47;;
6133;SDS011;3098;42.678;23.364;2023-08-20T00:58:09;10.43;;;5.60;;
6133;SDS011;3098;42.678;23.364;2023-08-20T01:00:37;9.18;;;5.80;;
6133;SDS011;3098;42.678;23.364;2023-08-20T01:03:04;7.93;;;5.22;;
6133;SDS011;3098;42.678;23.364;2023-08-20T01:05:32;7.10;;;5.32;;
6133;SDS011;3098;42.678;23.364;2023-08-20T01:08:09;10.15;;;5.90;;
6133;SDS011;3098;42.678;23.364;2023-08-20T01:10:48;9.90;;;5.45;;
6133;SDS011;3098;42.678;23.364;2023-08-20T01:13:22;8.48;;;5.68;;
6133;SDS011;3098;42.678;23.364;2023-08-20T01:15:50;12.15;;;5.82;;
6133;SDS011;3098;42.678;23.364;2023-08-20T01:18:17;11.60;;;6.32;;
6133;SDS011;3098;42.678;23.364;2023-08-20T01:20:45;9.15;;;5.95;;
6133;SDS011;3098;42.678;23.364;2023-08-20T01:26:35;12.18;;;6.15;;
6133;SDS011;3098;42.678;23.364;2023-08-20T01:29:14;8.48;;;5.38;;
6133;SDS011;3098;42.678;23.364;2023-08-20T01:31:41;8.52;;;5.65;;
6133;SDS011;3098;42.678;23.364;2023-08-20T01:34:11;8.90;;;5.25;;
6133;SDS011;3098;42.678;23.364;2023-08-20T01:36:38;10.13;;;5.90;;
6133;SDS011;3098;42.678;23.364;2023-08-20T01:39:05;9.32;;;6.53;;
6133;SDS011;3098;42.678;23.364;2023-08-20T01:41:33;13.45;;;6.68;;
6133;SDS011;3098;42.678;23.364;2023-08-20T01:44:00;10.70;;;6.10;;
6133;SDS011;3098;42.678;23.364;2023-08-20T01:46:28;11.00;;;6.88;;
6133;SDS011;3098;42.678;23.364;2023-08-20T01:48:55;12.25;;;6.63;;
6133;SDS011;3098;42.678;23.364;2023-08-20T01:51:22;12.02;;;6.68;;
6133;SDS011;3098;42.678;23.364;2023-08-20T01:53:50;10.18;;;6.57;;
6133;SDS011;3098;42.678;23.364;2023-08-20T01:56:16;8.55;;;6.15;;
6133;SDS011;3098;42.678;23.364;2023-08-20T01:58:44;14.60;;;5.82;;
6133;SDS011;3098;42.678;23.364;2023-08-20T02:01:11;8.98;;;5.55;;
6133;SDS011;3098;42.678;23.364;2023-08-20T02:03:39;9.00;;;5.95;;
6133;SDS011;3098;42.678;23.364;2023-08-20T02:06:06;9.15;;;6.28;;
6133;SDS011;3098;42.678;23.364;2023-08-20T02:08:33;9.50;;;6.40;;
6133;SDS011;3098;42.678;23.364;2023-08-20T02:11:00;7.43;;;5.88;;
6133;SDS011;3098;42.678;23.364;2023-08-20T02:13:29;13.50;;;7.15;;
6133;SDS011;3098;42.678;23.364;2023-08-20T02:15:57;9.98;;;5.97;;
6133;SDS011;3098;42.678;23.364;2023-08-20T02:18:25;9.88;;;6.68;;
6133;SDS011;3098;42.678;23.364;2023-08-20T02:20:54;7.68;;;5.82;;
6133;SDS011;3098;42.678;23.364;2023-08-20T02:23:21;9.95;;;6.63;;
6133;SDS011;3098;42.678;23.364;2023-08-20T02:25:48;13.02;;;6.30;;
6133;SDS011;3098;42.678;23.364;2023-08-20T02:28:16;8.38;;;5.85;;
6133;SDS011;3098;42.678;23.364;2023-08-20T02:30:43;11.30;;;6.70;;
6133;SDS011;3098;42.678;23.364;2023-08-20T02:33:12;10.13;;;6.47;;
6133;SDS011;3098;42.678;23.364;2023-08-20T02:35:39;9.57;;;5.88;;
6133;SDS011;3098;42.678;23.364;2023-08-20T02:38:08;10.15;;;6.30;;
6133;SDS011;3098;42.678;23.364;2023-08-20T02:40:39;9.27;;;6.07;;
6133;SDS011;3098;42.678;23.364;2023-08-20T02:43:06;8.32;;;5.97;;
6133;SDS011;3098;42.678;23.364;2023-08-20T02:45:38;10.75;;;6.55;;
6133;SDS011;3098;42.678;23.364;2023-08-20T02:48:06;9.35;;;6.25;;
6133;SDS011;3098;42.678;23.364;2023-08-20T02:50:33;9.05;;;6.35;;
6133;SDS011;3098;42.678;23.364;2023-08-20T02:53:00;9.93;;;6.32;;
6133;SDS011;3098;42.678;23.364;2023-08-20T02:55:29;10.18;;;6.30;;
6133;SDS011;3098;42.678;23.364;2023-08-20T02:57:57;10.75;;;6.45;;
6133;SDS011;3098;42.678;23.364;2023-08-20T03:00:24;12.80;;;6.68;;
6133;SDS011;3098;42.678;23.364;2023-08-20T03:02:51;13.70;;;6.90;;
6133;SDS011;3098;42.678;23.364;2023-08-20T03:05:18;10.52;;;7.20;;
6133;SDS011;3098;42.678;23.364;2023-08-20T03:07:45;11.85;;;7.05;;
6133;SDS011;3098;42.678;23.364;2023-08-20T03:10:12;12.32;;;6.97;;
6133;SDS011;3098;42.678;23.364;2023-08-20T03:12:41;10.45;;;6.97;;
6133;SDS011;3098;42.678;23.364;2023-08-20T03:15:08;9.75;;;6.32;;
6133;SDS011;3098;42.678;23.364;2023-08-20T03:17:35;9.63;;;6.75;;
6133;SDS011;3098;42.678;23.364;2023-08-20T03:20:03;16.42;;;7.53;;
6133;SDS011;3098;42.678;23.364;2023-08-20T03:22:31;12.57;;;7.18;;
6133;SDS011;3098;42.678;23.364;2023-08-20T03:24:58;9.95;;;6.68;;
6133;SDS011;3098;42.678;23.364;2023-08-20T03:27:25;12.05;;;7.35;;
6133;SDS011;3098;42.678;23.364;2023-08-20T03:29:54;16.00;;;6.93;;
6133;SDS011;3098;42.678;23.364;2023-08-20T03:32:21;13.18;;;7.10;;
6133;SDS011;3098;42.678;23.364;2023-08-20T03:34:49;16.05;;;9.27;;
6133;SDS011;3098;42.678;23.364;2023-08-20T03:37:18;14.75;;;9.15;;
6133;SDS011;3098;42.678;23.364;2023-08-20T03:39:45;11.45;;;7.55;;
6133;SDS011;3098;42.678;23.364;2023-08-20T03:42:12;14.10;;;8.00;;
6133;SDS011;3098;42.678;23.364;2023-08-20T03:44:40;13.00;;;7.80;;
6133;SDS011;3098;42.678;23.364;2023-08-20T03:47:08;17.45;;;9.65;;
6133;SDS011;3098;42.678;23.364;2023-08-20T03:49:35;11.25;;;7.13;;
6133;SDS011;3098;42.678;23.364;2023-08-20T03:52:03;13.75;;;8.77;;
6133;SDS011;3098;42.678;23.364;2023-08-20T03:54:32;10.82;;;7.15;;
6133;SDS011;3098;42.678;23.364;2023-08-20T03:57:00;19.10;;;9.15;;
6133;SDS011;3098;42.678;23.364;2023-08-20T03:59:27;13.77;;;7.10;;
6133;SDS011;3098;42.678;23.364;2023-08-20T04:01:54;11.18;;;7.20;;
6133;SDS011;3098;42.678;23.364;2023-08-20T04:04:23;14.95;;;7.20;;
6133;SDS011;3098;42.678;23.364;2023-08-20T04:06:50;15.60;;;7.20;;
6133;SDS011;3098;42.678;23.364;2023-08-20T04:09:17;24.35;;;10.80;;
6133;SDS011;3098;42.678;23.364;2023-08-20T04:11:44;11.45;;;7.07;;
6133;SDS011;3098;42.678;23.364;2023-08-20T04:14:11;11.75;;;6.97;;
6133;SDS011;3098;42.678;23.364;2023-08-20T04:16:38;12.63;;;6.90;;
6133;SDS011;3098;42.678;23.364;2023-08-20T04:19:05;10.98;;;7.43;;
6133;SDS011;3098;42.678;23.364;2023-08-20T04:21:34;11.40;;;7.70;;
6133;SDS011;3098;42.678;23.364;2023-08-20T04:24:02;22.73;;;9.30;;
6133;SDS011;3098;42.678;23.364;2023-08-20T04:26:30;17.38;;;10.00;;
6133;SDS011;3098;42.678;23.364;2023-08-20T04:28:57;25.00;;;12.02;;
6133;SDS011;3098;42.678;23.364;2023-08-20T04:31:24;22.50;;;12.85;;
6133;SDS011;3098;42.678;23.364;2023-08-20T04:33:51;15.25;;;9.18;;
6133;SDS011;3098;42.678;23.364;2023-08-20T04:36:19;14.65;;;8.10;;
6133;SDS011;3098;42.678;23.364;2023-08-20T04:38:48;15.95;;;9.75;;
6133;SDS011;3098;42.678;23.364;2023-08-20T04:41:16;18.13;;;10.63;;
6133;SDS011;3098;42.678;23.364;2023-08-20T04:43:43;17.75;;;10.32;;
6133;SDS011;3098;42.678;23.364;2023-08-20T04:46:13;12.32;;;7.75;;
6133;SDS011;3098;42.678;23.364;2023-08-20T04:48:40;26.08;;;10.70;;
6133;SDS011;3098;42.678;23.364;2023-08-20T04:51:07;12.60;;;7.65;;
6133;SDS011;3098;42.678;23.364;2023-08-20T04:53:34;12.18;;;8.25;;
6133;SDS011;3098;42.678;23.364;2023-08-20T04:56:03;18.63;;;10.18;;
6133;SDS011;3098;42.678;23.364;2023-08-20T04:58:30;17.13;;;9.20;;
6133;SDS011;3098;42.678;23.364;2023-08-20T05:00:57;15.85;;;10.15;;
6133;SDS011;3098;42.678;23.364;2023-08-20T05:03:25;18.00;;;10.43;;
6133;SDS011;3098;42.678;23.364;2023-08-20T05:05:52;16.25;;;9.80;;
6133;SDS011;3098;42.678;23.364;2023-08-20T05:08:20;17.95;;;8.50;;
6133;SDS011;3098;42.678;23.364;2023-08-20T05:10:47;17.23;;;9.20;;
6133;SDS011;3098;42.678;23.364;2023-08-20T05:13:17;14.25;;;8.27;;
6133;SDS011;3098;42.678;23.364;2023-08-20T05:15:46;13.18;;;8.20;;
6133;SDS011;3098;42.678;23.364;2023-08-20T05:18:13;14.48;;;8.88;;
6133;SDS011;3098;42.678;23.364;2023-08-20T05:20:39;15.57;;;9.52;;
6133;SDS011;3098;42.678;23.364;2023-08-20T05:23:07;16.08;;;8.57;;
6133;SDS011;3098;42.678;23.364;2023-08-20T05:25:33;15.95;;;9.00;;
6133;SDS011;3098;42.678;23.364;2023-08-20T05:28:01;15.43;;;10.25;;
6133;SDS011;3098;42.678;23.364;2023-08-20T05:30:29;11.75;;;7.55;;
6133;SDS011;3098;42.678;23.364;2023-08-20T05:32:56;14.10;;;8.23;;
6133;SDS011;3098;42.678;23.364;2023-08-20T05:35:24;19.05;;;10.95;;
6133;SDS011;3098;42.678;23.364;2023-08-20T05:37:51;15.90;;;8.75;;
6133;SDS011;3098;42.678;23.364;2023-08-20T05:40:18;15.18;;;8.77;;
6133;SDS011;3098;42.678;23.364;2023-08-20T05:42:46;14.32;;;8.32;;
6133;SDS011;3098;42.678;23.364;2023-08-20T05:45:13;19.45;;;9.82;;
6133;SDS011;3098;42.678;23.364;2023-08-20T05:47:42;12.02;;;8.18;;
6133;SDS011;3098;42.678;23.364;2023-08-20T05:50:09;13.75;;;8.23;;
6133;SDS011;3098;42.678;23.364;2023-08-20T05:52:36;12.00;;;8.38;;
6133;SDS011;3098;42.678;23.364;2023-08-20T05:55:04;12.18;;;7.85;;
6133;SDS011;3098;42.678;23.364;2023-08-20T05:57:31;11.88;;;8.18;;
6133;SDS011;3098;42.678;23.364;2023-08-20T05:59:59;12.18;;;7.47;;
6133;SDS011;3098;42.678;23.364;2023-08-20T06:02:26;10.60;;;7.07;;
6133;SDS011;3098;42.678;23.364;2023-08-20T06:04:55;12.95;;;7.10;;
6133;SDS011;3098;42.678;23.364;2023-08-20T06:07:22;11.05;;;7.60;;
6133;SDS011;3098;42.678;23.364;2023-08-20T06:09:49;10.45;;;7.75;;
6133;SDS011;3098;42.678;23.364;2023-08-20T06:12:18;14.02;;;9.07;;
6133;SDS011;3098;42.678;23.364;2023-08-20T06:14:45;10.35;;;7.35;;
6133;SDS011;3098;42.678;23.364;2023-08-20T06:17:12;13.02;;;7.60;;
6133;SDS011;3098;42.678;23.364;2023-08-20T06:19:39;13.40;;;7.70;;
6133;SDS011;3098;42.678;23.364;2023-08-20T06:22:08;16.27;;;8.15;;
6133;SDS011;3098;42.678;23.364;2023-08-20T06:24:35;12.77;;;8.05;;
6133;SDS011;3098;42.678;23.364;2023-08-20T06:27:02;10.70;;;7.25;;
6133;SDS011;3098;42.678;23.364;2023-08-20T06:29:30;15.30;;;8.18;;
6133;SDS011;3098;42.678;23.364;2023-08-20T06:31:57;12.32;;;7.70;;
6133;SDS011;3098;42.678;23.364;2023-08-20T06:34:24;22.52;;;6.57;;
6133;SDS011;3098;42.678;23.364;2023-08-20T06:36:52;10.32;;;6.57;;
6133;SDS011;3098;42.678;23.364;2023-08-20T06:39:20;14.00;;;7.38;;
6133;SDS011;3098;42.678;23.364;2023-08-20T06:41:47;13.18;;;7.07;;
6133;SDS011;3098;42.678;23.364;2023-08-20T06:44:14;10.43;;;6.47;;
6133;SDS011;3098;42.678;23.364;2023-08-20T06:46:41;11.48;;;7.57;;
6133;SDS011;3098;42.678;23.364;2023-08-20T06:49:08;12.82;;;7.15;;
6133;SDS011;3098;42.678;23.364;2023-08-20T06:51:36;11.15;;;7.07;;
6133;SDS011;3098;42.678;23.364;2023-08-20T06:54:03;10.98;;;7.32;;
6133;SDS011;3098;42.678;23.364;2023-08-20T06:56:33;10.32;;;6.75;;
6133;SDS011;3098;42.678;23.364;2023-08-20T06:59:00;7.60;;;6.00;;
6133;SDS011;3098;42.678;23.364;2023-08-20T07:01:28;11.68;;;7.57;;
6133;SDS011;3098;42.678;23.364;2023-08-20T07:03:55;10.45;;;6.97;;
6133;SDS011;3098;42.678;23.364;2023-08-20T07:06:22;9.18;;;6.60;;
6133;SDS011;3098;42.678;23.364;2023-08-20T07:08:49;12.88;;;6.80;;
6133;SDS011;3098;42.678;23.364;2023-08-20T07:11:17;10.38;;;6.57;;
6133;SDS011;3098;42.678;23.364;2023-08-20T07:13:46;12.65;;;5.93;;
6133;SDS011;3098;42.678;23.364;2023-08-20T07:16:13;7.97;;;6.50;;
6133;SDS011;3098;42.678;23.364;2023-08-20T07:18:42;8.07;;;6.00;;
6133;SDS011;3098;42.678;23.364;2023-08-20T07:21:10;7.22;;;5.78;;
6133;SDS011;3098;42.678;23.364;2023-08-20T07:23:37;7.35;;;5.57;;
6133;SDS011;3098;42.678;23.364;2023-08-20T07:26:04;9.32;;;5.05;;
6133;SDS011;3098;42.678;23.364;2023-08-20T07:28:33;7.03;;;5.35;;
6133;SDS011;3098;42.678;23.364;2023-08-20T07:31:21;6.68;;;5.38;;
6133;SDS011;3098;42.678;23.364;2023-08-20T07:33:49;6.72;;;4.90;;
6133;SDS011;3098;42.678;23.364;2023-08-20T07:36:17;9.43;;;5.60;;
6133;SDS011;3098;42.678;23.364;2023-08-20T07:38:47;6.70;;;4.78;;
6133;SDS011;3098;42.678;23.364;2023-08-20T07:41:13;21.63;;;13.07;;
6133;SDS011;3098;42.678;23.364;2023-08-20T07:43:40;25.75;;;17.48;;
6133;SDS011;3098;42.678;23.364;2023-08-20T07:46:08;7.25;;;5.35;;
6133;SDS011;3098;42.678;23.364;2023-08-20T07:48:37;5.15;;;4.50;;
6133;SDS011;3098;42.678;23.364;2023-08-20T07:51:04;8.40;;;4.95;;
6133;SDS011;3098;42.678;23.364;2023-08-20T07:53:32;8.43;;;5.03;;
6133;SDS011;3098;42.678;23.364;2023-08-20T07:56:00;5.43;;;4.53;;
6133;SDS011;3098;42.678;23.364;2023-08-20T07:58:27;5.85;;;4.47;;
6133;SDS011;3098;42.678;23.364;2023-08-20T08:00:55;9.43;;;5.20;;
6133;SDS011;3098;42.678;23.364;2023-08-20T08:03:24;5.63;;;4.47;;
6133;SDS011;3098;42.678;23.364;2023-08-20T08:05:53;6.95;;;4.85;;
6133;SDS011;3098;42.678;23.364;2023-08-20T08:08:21;6.53;;;4.88;;
6133;SDS011;3098;42.678;23.364;2023-08-20T08:10:50;6.88;;;4.22;;
6133;SDS011;3098;42.678;23.364;2023-08-20T08:13:18;7.13;;;4.72;;
6133;SDS011;3098;42.678;23.364;2023-08-20T08:15:47;6.28;;;4.65;;
6133;SDS011;3098;42.678;23.364;2023-08-20T08:18:14;8.68;;;5.47;;
6133;SDS011;3098;42.678;23.364;2023-08-20T08:20:42;7.03;;;4.93;;
6133;SDS011;3098;42.678;23.364;2023-08-20T08:23:11;7.43;;;5.10;;
6133;SDS011;3098;42.678;23.364;2023-08-20T08:25:38;6.97;;;4.53;;
6133;SDS011;3098;42.678;23.364;2023-08-20T08:28:07;4.88;;;3.92;;
6133;SDS011;3098;42.678;23.364;2023-08-20T08:30:34;5.05;;;3.92;;
6133;SDS011;3098;42.678;23.364;2023-08-20T08:33:01;5.60;;;4.30;;
6133;SDS011;3098;42.678;23.364;2023-08-20T08:35:30;5.90;;;3.92;;
6133;SDS011;3098;42.678;23.364;2023-08-20T08:37:57;5.55;;;4.00;;
6133;SDS011;3098;42.678;23.364;2023-08-20T08:40:28;5.25;;;3.88;;
6133;SDS011;3098;42.678;23.364;2023-08-20T08:42:55;5.57;;;4.13;;
6133;SDS011;3098;42.678;23.364;2023-08-20T08:45:24;5.13;;;4.22;;
6133;SDS011;3098;42.678;23.364;2023-08-20T08:47:53;17.00;;;11.75;;
6133;SDS011;3098;42.678;23.364;2023-08-20T08:50:21;4.80;;;3.97;;
6133;SDS011;3098;42.678;23.364;2023-08-20T08:52:48;4.55;;;3.45;;
6133;SDS011;3098;42.678;23.364;2023-08-20T08:55:19;5.50;;;3.65;;
6133;SDS011;3098;42.678;23.364;2023-08-20T08:57:48;5.65;;;3.80;;
6133;SDS011;3098;42.678;23.364;2023-08-20T09:00:15;4.38;;;3.88;;
6133;SDS011;3098;42.678;23.364;2023-08-20T09:02:42;4.25;;;3.40;;
6133;SDS011;3098;42.678;23.364;2023-08-20T09:05:12;5.03;;;3.95;;
6133;SDS011;3098;42.678;23.364;2023-08-20T09:07:41;6.20;;;3.60;;
6133;SDS011;3098;42.678;23.364;2023-08-20T09:10:10;4.78;;;3.67;;
6133;SDS011;3098;42.678;23.364;2023-08-20T09:12:37;3.70;;;3.30;;
6133;SDS011;3098;42.678;23.364;2023-08-20T09:15:11;4.57;;;3.80;;
6133;SDS011;3098;42.678;23.364;2023-08-20T09:17:40;4.93;;;3.97;;
6133;SDS011;3098;42.678;23.364;2023-08-20T09:20:08;5.40;;;4.10;;
6133;SDS011;3098;42.678;23.364;2023-08-20T09:22:36;5.47;;;3.95;;
6133;SDS011;3098;42.678;23.364;2023-08-20T09:25:03;5.47;;;3.47;;
6133;SDS011;3098;42.678;23.364;2023-08-20T09:27:31;3.85;;;3.45;;
6133;SDS011;3098;42.678;23.364;2023-08-20T09:30:07;6.25;;;4.13;;
6133;SDS011;3098;42.678;23.364;2023-08-20T09:32:35;3.70;;;3.05;;
6133;SDS011;3098;42.678;23.364;2023-08-20T09:35:02;6.20;;;3.80;;
6133;SDS011;3098;42.678;23.364;2023-08-20T09:37:32;4.55;;;3.67;;
6133;SDS011;3098;42.678;23.364;2023-08-20T09:39:59;5.05;;;4.13;;
6133;SDS011;3098;42.678;23.364;2023-08-20T09:42:27;4.88;;;3.47;;
6133;SDS011;3098;42.678;23.364;2023-08-20T09:44:58;5.20;;;3.45;;
6133;SDS011;3098;42.678;23.364;2023-08-20T09:47:29;3.25;;;2.95;;
6133;SDS011;3098;42.678;23.364;2023-08-20T09:50:00;3.25;;;2.95;;
6133;SDS011;3098;42.678;23.364;2023-08-20T09:52:30;5.40;;;3.42;;
6133;SDS011;3098;42.678;23.364;2023-08-20T09:55:03;3.50;;;3.03;;
6133;SDS011;3098;42.678;23.364;2023-08-20T09:57:36;2.90;;;2.60;;
6133;SDS011;3098;42.678;23.364;2023-08-20T10:00:04;3.08;;;2.55;;
6133;SDS011;3098;42.678;23.364;2023-08-20T10:02:35;13.52;;;8.60;;
6133;SDS011;3098;42.678;23.364;2023-08-20T10:05:06;12.10;;;9.20;;
6133;SDS011;3098;42.678;23.364;2023-08-20T10:07:34;5.85;;;3.40;;
6133;SDS011;3098;42.678;23.364;2023-08-20T10:10:03;5.63;;;3.17;;
6133;SDS011;3098;42.678;23.364;2023-08-20T10:12:32;4.15;;;3.13;;
6133;SDS011;3098;42.678;23.364;2023-08-20T10:15:00;4.05;;;3.17;;
6133;SDS011;3098;42.678;23.364;2023-08-20T10:17:29;3.75;;;2.85;;
6133;SDS011;3098;42.678;23.364;2023-08-20T10:19:57;3.67;;;3.10;;
6133;SDS011;3098;42.678;23.364;2023-08-20T10:22:34;3.72;;;3.20;;
6133;SDS011;3098;42.678;23.364;2023-08-20T10:25:05;5.95;;;3.03;;
6133;SDS011;3098;42.678;23.364;2023-08-20T10:27:34;3.35;;;3.00;;
6133;SDS011;3098;42.678;23.364;2023-08-20T10:30:08;5.07;;;3.10;;
6133;SDS011;3098;42.678;23.364;2023-08-20T10:32:44;3.75;;;3.35;;
6133;SDS011;3098;42.678;23.364;2023-08-20T10:35:12;4.07;;;2.88;;
6133;SDS011;3098;42.678;23.364;2023-08-20T10:37:41;4.60;;;3.22;;
6133;SDS011;3098;42.678;23.364;2023-08-20T10:43:32;4.25;;;3.20;;
6133;SDS011;3098;42.678;23.364;2023-08-20T10:46:06;3.33;;;3.03;;
6133;SDS011;3098;42.678;23.364;2023-08-20T10:48:36;7.60;;;3.05;;
6133;SDS011;3098;42.678;23.364;2023-08-20T10:51:11;4.88;;;3.17;;
6133;SDS011;3098;42.678;23.364;2023-08-20T10:53:42;3.20;;;2.90;;
6133;SDS011;3098;42.678;23.364;2023-08-20T10:56:15;3.75;;;3.33;;
6133;SDS011;3098;42.678;23.364;2023-08-20T10:58:44;5.45;;;3.78;;
6133;SDS011;3098;42.678;23.364;2023-08-20T11:01:13;5.50;;;3.20;;
6133;SDS011;3098;42.678;23.364;2023-08-20T11:03:46;4.07;;;3.25;;
6133;SDS011;3098;42.678;23.364;2023-08-20T11:06:14;6.78;;;2.80;;
6133;SDS011;3098;42.678;23.364;2023-08-20T11:08:44;4.75;;;3.08;;
6133;SDS011;3098;42.678;23.364;2023-08-20T11:11:11;3.47;;;2.97;;
6133;SDS011;3098;42.678;23.364;2023-08-20T11:13:38;5.70;;;3.50;;
6133;SDS011;3098;42.678;23.364;2023-08-20T11:16:08;4.10;;;3.10;;
6133;SDS011;3098;42.678;23.364;2023-08-20T11:18:35;3.72;;;2.83;;
6133;SDS011;3098;42.678;23.364;2023-08-20T11:21:03;3.63;;;2.95;;
6133;SDS011;3098;42.678;23.364;2023-08-20T11:23:31;4.03;;;3.03;;
6133;SDS011;3098;42.678;23.364;2023-08-20T11:26:00;3.40;;;3.10;;
6133;SDS011;3098;42.678;23.364;2023-08-20T11:28:28;7.28;;;3.25;;
6133;SDS011;3098;42.678;23.364;2023-08-20T11:30:56;4.43;;;3.08;;
6133;SDS011;3098;42.678;23.364;2023-08-20T11:33:23;6.07;;;3.85;;
6133;SDS011;3098;42.678;23.364;2023-08-20T11:35:52;4.45;;;3.15;;
6133;SDS011;3098;42.678;23.364;2023-08-20T11:38:20;5.25;;;3.53;;
6133;SDS011;3098;42.678;23.364;2023-08-20T11:40:50;3.78;;;3.15;;
6133;SDS011;3098;42.678;23.364;2023-08-20T11:43:18;4.95;;;3.83;;
6133;SDS011;3098;42.678;23.364;2023-08-20T11:45:46;4.40;;;3.30;;
6133;SDS011;3098;42.678;23.364;2023-08-20T11:48:14;5.25;;;3.38;;
6133;SDS011;3098;42.678;23.364;2023-08-20T11:50:42;4.57;;;3.33;;
6133;SDS011;3098;42.678;23.364;2023-08-20T11:53:09;6.90;;;3.47;;
6133;SDS011;3098;42.678;23.364;2023-08-20T11:55:37;4.65;;;3.55;;
6133;SDS011;3098;42.678;23.364;2023-08-20T11:58:09;4.82;;;3.47;;
6133;SDS011;3098;42.678;23.364;2023-08-20T12:00:39;12.00;;;3.42;;
6133;SDS011;3098;42.678;23.364;2023-08-20T12:03:08;5.07;;;4.00;;
6133;SDS011;3098;42.678;23.364;2023-08-20T12:05:36;4.53;;;3.47;;
6133;SDS011;3098;42.678;23.364;2023-08-20T12:08:03;4.90;;;3.83;;
6133;SDS011;3098;42.678;23.364;2023-08-20T12:10:31;5.07;;;3.40;;
6133;SDS011;3098;42.678;23.364;2023-08-20T12:12:59;6.50;;;3.58;;
6133;SDS011;3098;42.678;23.364;2023-08-20T12:15:28;3.88;;;3.15;;
6133;SDS011;3098;42.678;23.364;2023-08-20T12:17:57;4.10;;;3.20;;
6133;SDS011;3098;42.678;23.364;2023-08-20T12:20:26;4.18;;;3.35;;
6133;SDS011;3098;42.678;23.364;2023-08-20T12:22:54;6.63;;;3.63;;
6133;SDS011;3098;42.678;23.364;2023-08-20T12:25:22;8.38;;;3.55;;
6133;SDS011;3098;42.678;23.364;2023-08-20T12:27:48;4.45;;;3.60;;
6133;SDS011;3098;42.678;23.364;2023-08-20T12:30:16;4.75;;;3.05;;
6133;SDS011;3098;42.678;23.364;2023-08-20T12:32:43;4.28;;;3.10;;
6133;SDS011;3098;42.678;23.364;2023-08-20T12:35:12;4.68;;;3.50;;
6133;SDS011;3098;42.678;23.364;2023-08-20T12:37:39;3.70;;;3.15;;
6133;SDS011;3098;42.678;23.364;2023-08-20T12:40:07;4.38;;;3.25;;
6133;SDS011;3098;42.678;23.364;2023-08-20T12:42:36;6.13;;;3.58;;
6133;SDS011;3098;42.678;23.364;2023-08-20T12:45:04;6.65;;;3.50;;
6133;SDS011;3098;42.678;23.364;2023-08-20T12:47:32;3.90;;;3.22;;
6133;SDS011;3098;42.678;23.364;2023-08-20T12:50:00;5.13;;;3.58;;
6133;SDS011;3098;42.678;23.364;2023-08-20T12:52:30;5.18;;;3.60;;
6133;SDS011;3098;42.678;23.364;2023-08-20T12:54:58;4.82;;;3.05;;
6133;SDS011;3098;42.678;23.364;2023-08-20T12:57:25;6.10;;;3.83;;
6133;SDS011;3098;42.678;23.364;2023-08-20T12:59:53;5.80;;;3.65;;
6133;SDS011;3098;42.678;23.364;2023-08-20T13:02:20;7.32;;;3.30;;
6133;SDS011;3098;42.678;23.364;2023-08-20T13:04:48;4.95;;;3.40;;
6133;SDS011;3098;42.678;23.364;2023-08-20T13:07:15;7.35;;;3.55;;
6133;SDS011;3098;42.678;23.364;2023-08-20T13:09:44;4.18;;;3.45;;
6133;SDS011;3098;42.678;23.364;2023-08-20T13:12:12;5.18;;;4.00;;
6133;SDS011;3098;42.678;23.364;2023-08-20T13:14:49;5.07;;;3.50;;
6133;SDS011;3098;42.678;23.364;2023-08-20T13:17:17;5.00;;;3.22;;
6133;SDS011;3098;42.678;23.364;2023-08-20T13:19:44;4.25;;;3.28;;
6133;SDS011;3098;42.678;23.364;2023-08-20T13:22:12;5.63;;;3.85;;
6133;SDS011;3098;42.678;23.364;2023-08-20T13:24:39;5.40;;;3.60;;
6133;SDS011;3098;42.678;23.364;2023-08-20T13:27:06;5.85;;;3.30;;
6133;SDS011;3098;42.678;23.364;2023-08-20T13:29:33;3.80;;;3.40;;
6133;SDS011;3098;42.678;23.364;2023-08-20T13:32:02;4.90;;;3.35;;
6133;SDS011;3098;42.678;23.364;2023-08-20T13:34:29;4.13;;;3.13;;
6133;SDS011;3098;42.678;23.364;2023-08-20T13:36:57;5.43;;;3.67;;
6133;SDS011;3098;42.678;23.364;2023-08-20T13:39:24;4.63;;;2.75;;
6133;SDS011;3098;42.678;23.364;2023-08-20T13:41:52;3.65;;;3.17;;
6133;SDS011;3098;42.678;23.364;2023-08-20T13:44:19;4.93;;;3.80;;
6133;SDS011;3098;42.678;23.364;2023-08-20T13:46:46;4.20;;;3.28;;
6133;SDS011;3098;42.678;23.364;2023-08-20T13:49:15;4.25;;;3.25;;
6133;SDS011;3098;42.678;23.364;2023-08-20T13:51:42;3.85;;;2.92;;
6133;SDS011;3098;42.678;23.364;2023-08-20T13:54:09;5.35;;;3.28;;
6133;SDS011;3098;42.678;23.364;2023-08-20T13:56:36;5.72;;;3.55;;
6133;SDS011;3098;42.678;23.364;2023-08-20T13:59:04;3.78;;;2.95;;
6133;SDS011;3098;42.678;23.364;2023-08-20T14:01:31;4.18;;;3.20;;
6133;SDS011;3098;42.678;23.364;2023-08-20T14:03:57;4.13;;;3.13;;
6133;SDS011;3098;42.678;23.364;2023-08-20T14:06:26;3.30;;;3.00;;
6133;SDS011;3098;42.678;23.364;2023-08-20T14:08:53;4.80;;;3.30;;
6133;SDS011;3098;42.678;23.364;2023-08-20T14:11:20;3.70;;;3.10;;
6133;SDS011;3098;42.678;23.364;2023-08-20T14:13:47;7.88;;;3.50;;
6133;SDS011;3098;42.678;23.364;2023-08-20T14:16:15;5.28;;;2.92;;
6133;SDS011;3098;42.678;23.364;2023-08-20T14:18:42;4.43;;;3.40;;
6133;SDS011;3098;42.678;23.364;2023-08-20T14:21:09;3.63;;;2.72;;
6133;SDS011;3098;42.678;23.364;2023-08-20T14:23:37;4.65;;;3.05;;
6133;SDS011;3098;42.678;23.364;2023-08-20T14:26:05;4.95;;;3.28;;
6133;SDS011;3098;42.678;23.364;2023-08-20T14:28:33;6.25;;;3.25;;
6133;SDS011;3098;42.678;23.364;2023-08-20T14:31:01;4.50;;;3.28;;
6133;SDS011;3098;42.678;23.364;2023-08-20T14:33:29;4.05;;;3.17;;
6133;SDS011;3098;42.678;23.364;2023-08-20T14:35:56;4.78;;;3.38;;
6133;SDS011;3098;42.678;23.364;2023-08-20T14:38:24;4.95;;;3.53;;
6133;SDS011;3098;42.678;23.364;2023-08-20T14:40:53;6.15;;;3.20;;
6133;SDS011;3098;42.678;23.364;2023-08-20T14:43:20;9.50;;;4.97;;
6133;SDS011;3098;42.678;23.364;2023-08-20T14:45:47;4.70;;;3.45;;
6133;SDS011;3098;42.678;23.364;2023-08-20T14:48:14;3.33;;;3.03;;
6133;SDS011;3098;42.678;23.364;2023-08-20T14:50:42;6.07;;;3.00;;
6133;SDS011;3098;42.678;23.364;2023-08-20T14:53:10;4.25;;;2.83;;
6133;SDS011;3098;42.678;23.364;2023-08-20T14:55:37;4.60;;;3.67;;
6133;SDS011;3098;42.678;23.364;2023-08-20T14:58:06;24.48;;;12.88;;
6133;SDS011;3098;42.678;23.364;2023-08-20T15:00:33;6.47;;;3.22;;
6133;SDS011;3098;42.678;23.364;2023-08-20T15:03:00;3.67;;;3.00;;
6133;SDS011;3098;42.678;23.364;2023-08-20T15:05:28;4.57;;;3.15;;
6133;SDS011;3098;42.678;23.364;2023-08-20T15:07:55;4.05;;;2.97;;